Portena, Argentina
Current Conditions -  °F | °C
As of 4:00 AM on Sunday 23 Nov 2014 (Local Time) from SACO Reporting Station
Clear Clear  
Wind Chill: 18°   Ceiling: Unl
Heat Index: 18°   Visibility: 6mi
Dew Point: 11°   Wind: 7mph
Humidity: 64%   Direction: 360°N
Pressure: 29.91"   Gusts: NA
Location:  31.02°S, 62.07°W
Report Text: SACO 230700Z 36006KT CAVOK 18/11 Q1013
Loading
Personal Weather Stations






























Interactive Weather Map New forecast layout! Learn more

10-Day Weather Forecast

Advertisements
Track Severe Weather on mobile